sensor_id;sensor_type;location;lat;lon;timestamp;pressure;altitude;pressure_sealevel;temperature;humidity
44001;BME280;29660;42.892;24.710;2023-05-01T00:05:06;96935.19;;;10.28;100.00
44001;BME280;29660;42.892;24.710;2023-05-01T00:10:28;96921.88;;;10.47;100.00
44001;BME280;29660;42.892;24.710;2023-05-01T00:15:50;96821.31;;;9.67;100.00
44001;BME280;29660;42.892;24.710;2023-05-01T00:21:13;96755.81;;;9.47;100.00
44001;BME280;29660;42.892;24.710;2023-05-01T00:26:35;96957.63;;;10.65;100.00
44001;BME280;29660;42.892;24.710;2023-05-01T00:31:57;96905.59;;;10.24;100.00
44001;BME280;29660;42.892;24.710;2023-05-01T00:37:19;96959.91;;;10.52;100.00
44001;BME280;29660;42.892;24.710;2023-05-01T00:42:41;96864.84;;;9.81;100.00
44001;BME280;29660;42.892;24.710;2023-05-01T00:48:04;96894.53;;;9.93;100.00
44001;BME280;29660;42.892;24.710;2023-05-01T00:53:26;96806.84;;;9.30;100.00
44001;BME280;29660;42.892;24.710;2023-05-01T00:58:50;96795.88;;;9.13;100.00
44001;BME280;29660;42.892;24.710;2023-05-01T01:04:14;96916.94;;;9.92;100.00
44001;BME280;29660;42.892;24.710;2023-05-01T01:32:02;97001.72;;;10.09;100.00
44001;BME280;29660;42.892;24.710;2023-05-01T01:37:42;97000.53;;;9.96;100.00
44001;BME280;29660;42.892;24.710;2023-05-01T01:43:09;96987.59;;;9.84;100.00
44001;BME280;29660;42.892;24.710;2023-05-01T01:48:38;96978.25;;;9.58;100.00
44001;BME280;29660;42.892;24.710;2023-05-01T01:54:03;96699.75;;;7.69;100.00
44001;BME280;29660;42.892;24.710;2023-05-01T01:59:30;96698.72;;;7.65;100.00
44001;BME280;29660;42.892;24.710;2023-05-01T02:04:55;96945.53;;;9.23;100.00
44001;BME280;29660;42.892;24.710;2023-05-01T02:10:18;96909.25;;;9.03;100.00
44001;BME280;29660;42.892;24.710;2023-05-01T02:15:44;96999.97;;;9.41;100.00
44001;BME280;29660;42.892;24.710;2023-05-01T02:21:07;96754.84;;;7.87;100.00
44001;BME280;29660;42.892;24.710;2023-05-01T02:26:36;97021.31;;;9.31;100.00
44001;BME280;29660;42.892;24.710;2023-05-01T02:31:59;96719.53;;;7.42;100.00
44001;BME280;29660;42.892;24.710;2023-05-01T02:37:22;96963.63;;;8.92;100.00
44001;BME280;29660;42.892;24.710;2023-05-01T02:42:44;96765.91;;;7.55;100.00
44001;BME280;29660;42.892;24.710;2023-05-01T02:48:12;96693.19;;;7.01;100.00
44001;BME280;29660;42.892;24.710;2023-05-01T02:53:37;96605.69;;;6.26;100.00
44001;BME280;29660;42.892;24.710;2023-05-01T02:59:10;96781.63;;;7.41;100.00
44001;BME280;29660;42.892;24.710;2023-05-01T03:04:33;96800.72;;;7.38;100.00
44001;BME280;29660;42.892;24.710;2023-05-01T03:09:55;97043.13;;;8.94;100.00
44001;BME280;29660;42.892;24.710;2023-05-01T03:15:18;96757.09;;;6.95;100.00
44001;BME280;29660;42.892;24.710;2023-05-01T03:20:40;96763.72;;;6.97;100.00
44001;BME280;29660;42.892;24.710;2023-05-01T03:26:12;96780.69;;;7.01;100.00
44001;BME280;29660;42.892;24.710;2023-05-01T03:31:34;96817.22;;;7.25;100.00
44001;BME280;29660;42.892;24.710;2023-05-01T03:36:57;97009.56;;;8.48;100.00
44001;BME280;29660;42.892;24.710;2023-05-01T03:42:21;97068.47;;;8.76;100.00
44001;BME280;29660;42.892;24.710;2023-05-01T03:47:45;96807.66;;;7.19;100.00
44001;BME280;29660;42.892;24.710;2023-05-01T03:53:08;96816.13;;;7.31;100.00
44001;BME280;29660;42.892;24.710;2023-05-01T03:58:31;97047.94;;;8.87;100.00
44001;BME280;29660;42.892;24.710;2023-05-01T04:03:53;96786.25;;;7.70;100.00
44001;BME280;29660;42.892;24.710;2023-05-01T04:09:15;96878.34;;;8.39;100.00
44001;BME280;29660;42.892;24.710;2023-05-01T04:14:37;97017.41;;;9.57;100.00
44001;BME280;29660;42.892;24.710;2023-05-01T04:20:00;96819.47;;;8.90;100.00
44001;BME280;29660;42.892;24.710;2023-05-01T04:25:22;96865.25;;;9.45;100.00
44001;BME280;29660;42.892;24.710;2023-05-01T04:30:47;96768.81;;;9.29;100.00
44001;BME280;29660;42.892;24.710;2023-05-01T04:36:09;96833.91;;;9.85;100.00
44001;BME280;29660;42.892;24.710;2023-05-01T04:41:31;96931.38;;;10.34;100.00
44001;BME280;29660;42.892;24.710;2023-05-01T04:46:53;96872.84;;;9.81;100.00
44001;BME280;29660;42.892;24.710;2023-05-01T04:52:15;96827.09;;;9.55;100.00
44001;BME280;29660;42.892;24.710;2023-05-01T04:58:03;97109.03;;;11.35;100.00
44001;BME280;29660;42.892;24.710;2023-05-01T05:03:28;96878.09;;;9.86;100.00
44001;BME280;29660;42.892;24.710;2023-05-01T05:08:51;96863.94;;;9.67;100.00
44001;BME280;29660;42.892;24.710;2023-05-01T05:14:14;96862.94;;;9.87;100.00
44001;BME280;29660;42.892;24.710;2023-05-01T05:19:36;96881.72;;;9.95;100.00
44001;BME280;29660;42.892;24.710;2023-05-01T05:24:58;96837.31;;;9.91;100.00
44001;BME280;29660;42.892;24.710;2023-05-01T05:30:28;97128.53;;;11.92;100.00
44001;BME280;29660;42.892;24.710;2023-05-01T05:35:51;97156.56;;;12.27;100.00
44001;BME280;29660;42.892;24.710;2023-05-01T05:41:18;96881.22;;;10.74;100.00
44001;BME280;29660;42.892;24.710;2023-05-01T05:46:44;96894.91;;;11.19;100.00
44001;BME280;29660;42.892;24.710;2023-05-01T05:52:12;96923.59;;;11.60;100.00
44001;BME280;29660;42.892;24.710;2023-05-01T05:57:34;96904.00;;;11.78;100.00
44001;BME280;29660;42.892;24.710;2023-05-01T06:03:00;96909.66;;;11.90;100.00
44001;BME280;29660;42.892;24.710;2023-05-01T06:08:25;97158.53;;;13.73;100.00
44001;BME280;29660;42.892;24.710;2023-05-01T06:13:47;97130.41;;;13.84;100.00
44001;BME280;29660;42.892;24.710;2023-05-01T06:19:10;97182.31;;;14.33;100.00
44001;BME280;29660;42.892;24.710;2023-05-01T06:24:34;97065.50;;;13.96;100.00
44001;BME280;29660;42.892;24.710;2023-05-01T06:29:58;97072.72;;;14.49;100.00
44001;BME280;29660;42.892;24.710;2023-05-01T06:35:20;96911.69;;;13.52;99.60
44001;BME280;29660;42.892;24.710;2023-05-01T06:40:42;96919.84;;;13.78;96.50
44001;BME280;29660;42.892;24.710;2023-05-01T06:46:07;96882.16;;;13.74;98.85
44001;BME280;29660;42.892;24.710;2023-05-01T06:51:30;96960.97;;;14.53;93.37
44001;BME280;29660;42.892;24.710;2023-05-01T06:56:52;97170.22;;;15.81;96.51
44001;BME280;29660;42.892;24.710;2023-05-01T07:02:14;96781.03;;;13.49;92.19
44001;BME280;29660;42.892;24.710;2023-05-01T07:07:36;96948.22;;;14.85;92.92
44001;BME280;29660;42.892;24.710;2023-05-01T07:13:03;97208.28;;;16.79;90.50
44001;BME280;29660;42.892;24.710;2023-05-01T07:18:25;97120.34;;;16.27;85.43
44001;BME280;29660;42.892;24.710;2023-05-01T07:23:47;97177.22;;;16.73;85.76
44001;BME280;29660;42.892;24.710;2023-05-01T07:29:09;97194.91;;;17.00;81.01
44001;BME280;29660;42.892;24.710;2023-05-01T07:34:32;97146.03;;;16.72;78.81
44001;BME280;29660;42.892;24.710;2023-05-01T07:39:55;97146.94;;;16.84;80.11
44001;BME280;29660;42.892;24.710;2023-05-01T07:45:17;96941.66;;;15.81;77.40
44001;BME280;29660;42.892;24.710;2023-05-01T07:50:39;96944.94;;;15.95;76.67
44001;BME280;29660;42.892;24.710;2023-05-01T07:56:06;97061.38;;;16.90;75.72
44001;BME280;29660;42.892;24.710;2023-05-01T08:01:29;96930.47;;;16.38;74.20
44001;BME280;29660;42.892;24.710;2023-05-01T08:06:51;96992.69;;;16.96;70.36
44001;BME280;29660;42.892;24.710;2023-05-01T08:12:14;96932.72;;;16.87;71.55
44001;BME280;29660;42.892;24.710;2023-05-01T08:17:36;97193.97;;;18.38;66.87
44001;BME280;29660;42.892;24.710;2023-05-01T08:22:58;96937.59;;;16.43;69.72
44001;BME280;29660;42.892;24.710;2023-05-01T08:28:21;96926.66;;;16.39;66.91
44001;BME280;29660;42.892;24.710;2023-05-01T08:33:44;97131.63;;;17.56;65.62
44001;BME280;29660;42.892;24.710;2023-05-01T08:39:06;97177.00;;;18.05;65.87
44001;BME280;29660;42.892;24.710;2023-05-01T08:44:29;96936.88;;;16.25;64.32
44001;BME280;29660;42.892;24.710;2023-05-01T08:49:51;96941.50;;;16.45;63.29
44001;BME280;29660;42.892;24.710;2023-05-01T08:55:14;96941.50;;;16.45;62.08
44001;BME280;29660;42.892;24.710;2023-05-01T09:00:37;96918.81;;;16.55;63.14
44001;BME280;29660;42.892;24.710;2023-05-01T09:06:01;97122.16;;;18.13;60.18
44001;BME280;29660;42.892;24.710;2023-05-01T09:11:24;96910.19;;;16.91;56.55
44001;BME280;29660;42.892;24.710;2023-05-01T09:16:47;97102.03;;;18.23;56.96
44001;BME280;29660;42.892;24.710;2023-05-01T09:22:09;96932.38;;;17.42;53.34
44001;BME280;29660;42.892;24.710;2023-05-01T09:27:36;96897.81;;;17.57;53.68
44001;BME280;29660;42.892;24.710;2023-05-01T09:38:26;96900.97;;;17.59;50.42
44001;BME280;29660;42.892;24.710;2023-05-01T09:43:54;97087.50;;;19.22;51.15
44001;BME280;29660;42.892;24.710;2023-05-01T09:49:16;97117.50;;;19.69;49.20
44001;BME280;29660;42.892;24.710;2023-05-01T09:54:39;97160.38;;;20.51;49.73
44001;BME280;29660;42.892;24.710;2023-05-01T10:00:02;96916.13;;;19.26;47.03
44001;BME280;29660;42.892;24.710;2023-05-01T10:05:41;96913.09;;;19.72;44.47
44001;BME280;29660;42.892;24.710;2023-05-01T10:11:04;96899.31;;;19.93;42.76
44001;BME280;29660;42.892;24.710;2023-05-01T10:16:28;96887.53;;;19.69;42.59
44001;BME280;29660;42.892;24.710;2023-05-01T10:21:51;97138.56;;;20.92;42.08
44001;BME280;29660;42.892;24.710;2023-05-01T10:27:14;96876.78;;;19.01;43.03
44001;BME280;29660;42.892;24.710;2023-05-01T10:32:40;97065.44;;;19.88;43.52
44001;BME280;29660;42.892;24.710;2023-05-01T10:38:07;97165.38;;;20.21;44.29
44001;BME280;29660;42.892;24.710;2023-05-01T10:43:31;97092.72;;;19.55;45.75
44001;BME280;29660;42.892;24.710;2023-05-01T10:48:53;96889.56;;;17.99;45.43
44001;BME280;29660;42.892;24.710;2023-05-01T11:11:44;97171.75;;;20.57;42.69
44001;BME280;29660;42.892;24.710;2023-05-01T11:17:06;97017.13;;;19.46;42.42
44001;BME280;29660;42.892;24.710;2023-05-01T11:22:29;96895.84;;;18.27;46.49
44001;BME280;29660;42.892;24.710;2023-05-01T11:27:55;97130.63;;;19.43;47.80
44001;BME280;29660;42.892;24.710;2023-05-01T11:33:21;97111.38;;;19.07;46.02
44001;BME280;29660;42.892;24.710;2023-05-01T11:38:49;97183.59;;;19.31;46.66
44001;BME280;29660;42.892;24.710;2023-05-01T11:44:16;97172.78;;;19.19;47.22
44001;BME280;29660;42.892;24.710;2023-05-01T11:49:39;96889.50;;;17.50;48.45
44001;BME280;29660;42.892;24.710;2023-05-01T11:55:01;97154.41;;;19.61;48.13
44001;BME280;29660;42.892;24.710;2023-05-01T12:00:29;97176.56;;;20.07;46.27
44001;BME280;29660;42.892;24.710;2023-05-01T12:05:51;96862.81;;;17.94;46.80
44001;BME280;29660;42.892;24.710;2023-05-01T12:11:13;96909.34;;;18.03;48.62
44001;BME280;29660;42.892;24.710;2023-05-01T12:16:36;96907.34;;;18.12;48.96
44001;BME280;29660;42.892;24.710;2023-05-01T12:22:05;97175.41;;;19.80;49.53
44001;BME280;29660;42.892;24.710;2023-05-01T12:27:27;96916.56;;;18.35;50.24
44001;BME280;29660;42.892;24.710;2023-05-01T12:32:50;97053.81;;;19.59;50.47
44001;BME280;29660;42.892;24.710;2023-05-01T12:38:14;97089.56;;;19.65;50.77
44001;BME280;29660;42.892;24.710;2023-05-01T12:43:37;97156.03;;;20.34;50.71
44001;BME280;29660;42.892;24.710;2023-05-01T12:48:59;96863.66;;;18.47;50.03
44001;BME280;29660;42.892;24.710;2023-05-01T12:54:22;97182.44;;;20.81;45.91
44001;BME280;29660;42.892;24.710;2023-05-01T12:59:45;97125.25;;;20.87;44.88
44001;BME280;29660;42.892;24.710;2023-05-01T13:05:10;97164.22;;;21.45;43.49
44001;BME280;29660;42.892;24.710;2023-05-01T13:10:33;96944.25;;;20.29;45.06
44001;BME280;29660;42.892;24.710;2023-05-01T13:16:06;97171.13;;;21.94;42.33
44001;BME280;29660;42.892;24.710;2023-05-01T13:21:30;97052.13;;;21.61;41.59
44001;BME280;29660;42.892;24.710;2023-05-01T13:26:56;97166.28;;;22.22;42.08
44001;BME280;29660;42.892;24.710;2023-05-01T13:32:24;97089.94;;;21.50;44.63
44001;BME280;29660;42.892;24.710;2023-05-01T13:37:46;97146.19;;;21.53;47.83
44001;BME280;29660;42.892;24.710;2023-05-01T13:43:12;96937.16;;;19.61;48.30
44001;BME280;29660;42.892;24.710;2023-05-01T13:48:38;97232.72;;;19.70;71.51
44001;BME280;29660;42.892;24.710;2023-05-01T13:54:02;97200.50;;;18.37;76.20
44001;BME280;29660;42.892;24.710;2023-05-01T13:59:30;96947.81;;;16.50;84.23
44001;BME280;29660;42.892;24.710;2023-05-01T14:04:57;97052.91;;;16.62;88.31
44001;BME280;29660;42.892;24.710;2023-05-01T14:10:23;97078.03;;;16.36;92.40
44001;BME280;29660;42.892;24.710;2023-05-01T14:15:47;97261.25;;;17.13;98.95
44001;BME280;29660;42.892;24.710;2023-05-01T14:21:19;97251.72;;;16.51;97.83
44001;BME280;29660;42.892;24.710;2023-05-01T14:26:42;97164.84;;;15.99;97.55
44001;BME280;29660;42.892;24.710;2023-05-01T14:32:05;97250.31;;;16.28;97.88
44001;BME280;29660;42.892;24.710;2023-05-01T14:37:30;97018.81;;;14.85;100.00
44001;BME280;29660;42.892;24.710;2023-05-01T14:42:53;97260.41;;;16.57;100.00
44001;BME280;29660;42.892;24.710;2023-05-01T14:48:24;96952.81;;;14.84;100.00
44001;BME280;29660;42.892;24.710;2023-05-01T14:53:46;96956.16;;;14.90;100.00
44001;BME280;29660;42.892;24.710;2023-05-01T14:59:09;97206.72;;;16.60;100.00
44001;BME280;29660;42.892;24.710;2023-05-01T15:04:31;96913.16;;;14.64;97.50
44001;BME280;29660;42.892;24.710;2023-05-01T15:09:53;97242.34;;;16.66;98.99
44001;BME280;29660;42.892;24.710;2023-05-01T15:15:15;96994.06;;;15.06;99.63
44001;BME280;29660;42.892;24.710;2023-05-01T15:20:37;96976.84;;;14.98;95.25
44001;BME280;29660;42.892;24.710;2023-05-01T15:25:59;96991.22;;;15.11;91.75
44001;BME280;29660;42.892;24.710;2023-05-01T15:31:22;97040.84;;;15.39;95.39
44001;BME280;29660;42.892;24.710;2023-05-01T15:36:44;96935.75;;;14.54;95.65
44001;BME280;29660;42.892;24.710;2023-05-01T15:42:06;96974.44;;;14.88;99.36
44001;BME280;29660;42.892;24.710;2023-05-01T15:47:28;97229.88;;;16.44;100.00
44001;BME280;29660;42.892;24.710;2023-05-01T15:52:51;96938.56;;;14.58;100.00
44001;BME280;29660;42.892;24.710;2023-05-01T15:58:13;96908.81;;;14.19;100.00
44001;BME280;29660;42.892;24.710;2023-05-01T16:03:38;97181.75;;;15.99;100.00
44001;BME280;29660;42.892;24.710;2023-05-01T16:09:04;96990.50;;;14.62;100.00
44001;BME280;29660;42.892;24.710;2023-05-01T16:14:27;96993.84;;;14.59;100.00
44001;BME280;29660;42.892;24.710;2023-05-01T16:19:49;97049.00;;;14.82;100.00
44001;BME280;29660;42.892;24.710;2023-05-01T16:25:11;96969.84;;;14.22;100.00
44001;BME280;29660;42.892;24.710;2023-05-01T16:30:33;97148.31;;;15.22;100.00
44001;BME280;29660;42.892;24.710;2023-05-01T16:35:55;96960.06;;;13.78;100.00
44001;BME280;29660;42.892;24.710;2023-05-01T16:41:19;97008.88;;;13.97;100.00
44001;BME280;29660;42.892;24.710;2023-05-01T16:46:43;96932.47;;;13.24;100.00
44001;BME280;29660;42.892;24.710;2023-05-01T16:52:09;97222.63;;;14.95;100.00
44001;BME280;29660;42.892;24.710;2023-05-01T16:57:35;96977.53;;;13.08;100.00
44001;BME280;29660;42.892;24.710;2023-05-01T17:02:57;97013.03;;;13.14;100.00
44001;BME280;29660;42.892;24.710;2023-05-01T17:08:19;97265.97;;;14.35;100.00
44001;BME280;29660;42.892;24.710;2023-05-01T17:13:41;96933.34;;;12.11;100.00
44001;BME280;29660;42.892;24.710;2023-05-01T17:19:04;97291.66;;;14.14;100.00
44001;BME280;29660;42.892;24.710;2023-05-01T17:24:29;97161.88;;;13.15;100.00
44001;BME280;29660;42.892;24.710;2023-05-01T17:29:51;97237.59;;;13.34;100.00
44001;BME280;29660;42.892;24.710;2023-05-01T17:35:13;97274.97;;;13.39;100.00
44001;BME280;29660;42.892;24.710;2023-05-01T17:40:37;97233.00;;;12.93;100.00
44001;BME280;29660;42.892;24.710;2023-05-01T17:45:59;97024.94;;;11.51;100.00
44001;BME280;29660;42.892;24.710;2023-05-01T17:51:21;97048.13;;;11.37;100.00
44001;BME280;29660;42.892;24.710;2023-05-01T17:56:44;97103.22;;;11.51;100.00
44001;BME280;29660;42.892;24.710;2023-05-01T18:02:06;96936.50;;;10.30;100.00
44001;BME280;29660;42.892;24.710;2023-05-01T18:07:28;97143.09;;;11.43;100.00
44001;BME280;29660;42.892;24.710;2023-05-01T18:12:53;97336.78;;;12.64;100.00
44001;BME280;29660;42.892;24.710;2023-05-01T18:18:16;97343.44;;;12.47;100.00
44001;BME280;29660;42.892;24.710;2023-05-01T18:23:38;97304.06;;;11.96;100.00
44001;BME280;29660;42.892;24.710;2023-05-01T18:29:01;97353.34;;;12.09;100.00
44001;BME280;29660;42.892;24.710;2023-05-01T18:34:23;97372.41;;;12.02;100.00
44001;BME280;29660;42.892;24.710;2023-05-01T18:39:46;97099.28;;;10.05;100.00
44001;BME280;29660;42.892;24.710;2023-05-01T18:45:08;97093.28;;;9.94;100.00
44001;BME280;29660;42.892;24.710;2023-05-01T18:50:30;97242.28;;;10.83;100.00
44001;BME280;29660;42.892;24.710;2023-05-01T18:55:53;97173.50;;;10.22;100.00
44001;BME280;29660;42.892;24.710;2023-05-01T19:01:15;97372.66;;;11.29;100.00
44001;BME280;29660;42.892;24.710;2023-05-01T19:06:37;96837.75;;;7.69;100.00
44001;BME280;29660;42.892;24.710;2023-05-01T19:12:01;97336.00;;;10.76;100.00
44001;BME280;29660;42.892;24.710;2023-05-01T19:17:23;97359.69;;;10.83;100.00
44001;BME280;29660;42.892;24.710;2023-05-01T19:22:46;97331.59;;;10.56;100.00
44001;BME280;29660;42.892;24.710;2023-05-01T19:28:08;97272.03;;;9.93;100.00
44001;BME280;29660;42.892;24.710;2023-05-01T19:33:30;97252.38;;;9.83;100.00
44001;BME280;29660;42.892;24.710;2023-05-01T19:38:52;97173.59;;;9.28;100.00
44001;BME280;29660;42.892;24.710;2023-05-01T19:44:14;97344.59;;;10.29;100.00
44001;BME280;29660;42.892;24.710;2023-05-01T19:49:36;97169.41;;;9.06;100.00
44001;BME280;29660;42.892;24.710;2023-05-01T19:55:03;97137.88;;;8.79;100.00
44001;BME280;29660;42.892;24.710;2023-05-01T20:00:26;97371.78;;;10.21;100.00
44001;BME280;29660;42.892;24.710;2023-05-01T20:05:48;97354.59;;;10.03;100.00
44001;BME280;29660;42.892;24.710;2023-05-01T20:11:10;97407.81;;;10.18;100.00
44001;BME280;29660;42.892;24.710;2023-05-01T20:16:32;97409.75;;;10.02;100.00
44001;BME280;29660;42.892;24.710;2023-05-01T20:21:56;97084.59;;;7.89;100.00
44001;BME280;29660;42.892;24.710;2023-05-01T20:27:18;96886.72;;;6.50;100.00
44001;BME280;29660;42.892;24.710;2023-05-01T20:32:40;97147.81;;;8.18;100.00
44001;BME280;29660;42.892;24.710;2023-05-01T20:38:05;97318.13;;;9.13;100.00
44001;BME280;29660;42.892;24.710;2023-05-01T20:43:27;97331.69;;;9.17;100.00
44001;BME280;29660;42.892;24.710;2023-05-01T20:48:49;97343.94;;;9.18;100.00
44001;BME280;29660;42.892;24.710;2023-05-01T20:54:12;97181.78;;;8.05;100.00
44001;BME280;29660;42.892;24.710;2023-05-01T20:59:34;97399.81;;;9.28;100.00
44001;BME280;29660;42.892;24.710;2023-05-01T21:04:57;96750.97;;;4.99;100.00
44001;BME280;29660;42.892;24.710;2023-05-01T21:10:19;97271.88;;;8.22;100.00
44001;BME280;29660;42.892;24.710;2023-05-01T21:15:41;97317.91;;;8.38;100.00
44001;BME280;29660;42.892;24.710;2023-05-01T21:21:04;97368.69;;;8.62;100.00
44001;BME280;29660;42.892;24.710;2023-05-01T21:26:27;97125.38;;;7.01;100.00
44001;BME280;29660;42.892;24.710;2023-05-01T21:31:50;97443.19;;;8.93;100.00
44001;BME280;29660;42.892;24.710;2023-05-01T21:37:12;97144.94;;;6.90;100.00
44001;BME280;29660;42.892;24.710;2023-05-01T21:42:40;97418.63;;;8.40;100.00
44001;BME280;29660;42.892;24.710;2023-05-01T21:48:21;97150.19;;;6.75;100.00
44001;BME280;29660;42.892;24.710;2023-05-01T21:53:43;97299.13;;;7.67;100.00
44001;BME280;29660;42.892;24.710;2023-05-01T21:59:05;97166.06;;;6.70;100.00
44001;BME280;29660;42.892;24.710;2023-05-01T22:04:27;97446.25;;;8.39;100.00
44001;BME280;29660;42.892;24.710;2023-05-01T22:09:49;97135.13;;;6.33;100.00
44001;BME280;29660;42.892;24.710;2023-05-01T22:15:12;97383.59;;;7.85;100.00
44001;BME280;29660;42.892;24.710;2023-05-01T22:20:36;97443.22;;;8.20;100.00
44001;BME280;29660;42.892;24.710;2023-05-01T22:25:58;97161.31;;;6.29;100.00
44001;BME280;29660;42.892;24.710;2023-05-01T22:31:21;97150.91;;;6.18;100.00
44001;BME280;29660;42.892;24.710;2023-05-01T22:36:43;97160.97;;;6.21;100.00
44001;BME280;29660;42.892;24.710;2023-05-01T22:42:05;97171.91;;;6.29;100.00
44001;BME280;29660;42.892;24.710;2023-05-01T22:47:27;97384.50;;;7.53;100.00
44001;BME280;29660;42.892;24.710;2023-05-01T22:52:49;97095.72;;;5.67;100.00
44001;BME280;29660;42.892;24.710;2023-05-01T22:58:11;97150.94;;;5.90;100.00
44001;BME280;29660;42.892;24.710;2023-05-01T23:03:33;97202.81;;;6.19;100.00
44001;BME280;29660;42.892;24.710;2023-05-01T23:08:58;97206.59;;;6.28;100.00
44001;BME280;29660;42.892;24.710;2023-05-01T23:14:20;97279.44;;;6.62;100.00
44001;BME280;29660;42.892;24.710;2023-05-01T23:19:42;97124.19;;;5.55;100.00
44001;BME280;29660;42.892;24.710;2023-05-01T23:25:05;97161.59;;;5.69;100.00
44001;BME280;29660;42.892;24.710;2023-05-01T23:30:28;97347.47;;;6.84;100.00
44001;BME280;29660;42.892;24.710;2023-05-01T23:35:50;97380.94;;;6.95;100.00
44001;BME280;29660;42.892;24.710;2023-05-01T23:41:13;97431.56;;;7.26;100.00
44001;BME280;29660;42.892;24.710;2023-05-01T23:46:35;97135.44;;;5.45;100.00
44001;BME280;29660;42.892;24.710;2023-05-01T23:51:58;97440.06;;;7.28;100.00
44001;BME280;29660;42.892;24.710;2023-05-01T23:57:20;97429.38;;;7.18;100.00
